sensor_id;sensor_type;location;lat;lon;timestamp;temperature;humidity
72883;DHT22;61017;37.812;-122.286;2023-02-17T00:00:07;14.00;60.80
72883;DHT22;61017;37.812;-122.286;2023-02-17T00:01:38;14.00;60.80
72883;DHT22;61017;37.812;-122.286;2023-02-17T00:03:10;14.00;60.90
72883;DHT22;61017;37.812;-122.286;2023-02-17T00:04:41;14.00;60.80
72883;DHT22;61017;37.812;-122.286;2023-02-17T00:06:12;14.00;60.60
72883;DHT22;61017;37.812;-122.286;2023-02-17T00:07:43;13.90;60.60
72883;DHT22;61017;37.812;-122.286;2023-02-17T00:09:15;14.00;59.80
72883;DHT22;61017;37.812;-122.286;2023-02-17T00:10:53;14.00;59.50
72883;DHT22;61017;37.812;-122.286;2023-02-17T00:12:24;14.00;59.20
72883;DHT22;61017;37.812;-122.286;2023-02-17T00:13:56;14.00;59.00
72883;DHT22;61017;37.812;-122.286;2023-02-17T00:15:27;14.00;59.20
72883;DHT22;61017;37.812;-122.286;2023-02-17T00:16:58;13.90;59.20
72883;DHT22;61017;37.812;-122.286;2023-02-17T00:18:29;13.90;59.50
72883;DHT22;61017;37.812;-122.286;2023-02-17T00:20:00;14.00;59.70
72883;DHT22;61017;37.812;-122.286;2023-02-17T00:21:31;13.90;59.40
72883;DHT22;61017;37.812;-122.286;2023-02-17T00:23:02;14.00;59.40
72883;DHT22;61017;37.812;-122.286;2023-02-17T00:24:35;13.90;59.30
72883;DHT22;61017;37.812;-122.286;2023-02-17T00:26:07;14.00;59.20
72883;DHT22;61017;37.812;-122.286;2023-02-17T00:27:38;14.00;59.70
72883;DHT22;61017;37.812;-122.286;2023-02-17T00:29:09;13.90;59.60
72883;DHT22;61017;37.812;-122.286;2023-02-17T00:30:40;13.90;59.50
72883;DHT22;61017;37.812;-122.286;2023-02-17T00:32:11;13.90;59.50
72883;DHT22;61017;37.812;-122.286;2023-02-17T00:33:42;13.90;59.50
72883;DHT22;61017;37.812;-122.286;2023-02-17T00:35:13;14.00;59.50
72883;DHT22;61017;37.812;-122.286;2023-02-17T00:36:44;13.90;59.50
72883;DHT22;61017;37.812;-122.286;2023-02-17T00:38:15;14.00;59.70
72883;DHT22;61017;37.812;-122.286;2023-02-17T00:39:46;13.90;59.70
72883;DHT22;61017;37.812;-122.286;2023-02-17T00:41:18;13.90;60.00
72883;DHT22;61017;37.812;-122.286;2023-02-17T00:42:49;13.90;60.00
72883;DHT22;61017;37.812;-122.286;2023-02-17T00:44:21;14.00;60.20
72883;DHT22;61017;37.812;-122.286;2023-02-17T00:45:52;13.90;60.20
72883;DHT22;61017;37.812;-122.286;2023-02-17T00:47:23;14.00;60.30
72883;DHT22;61017;37.812;-122.286;2023-02-17T00:48:55;14.00;60.50
72883;DHT22;61017;37.812;-122.286;2023-02-17T00:50:26;13.90;60.50
72883;DHT22;61017;37.812;-122.286;2023-02-17T00:52:00;13.90;60.60
72883;DHT22;61017;37.812;-122.286;2023-02-17T00:53:31;14.00;60.80
72883;DHT22;61017;37.812;-122.286;2023-02-17T00:55:02;13.90;60.60
72883;DHT22;61017;37.812;-122.286;2023-02-17T00:56:33;13.90;60.80
72883;DHT22;61017;37.812;-122.286;2023-02-17T00:58:04;14.00;60.90
72883;DHT22;61017;37.812;-122.286;2023-02-17T00:59:35;14.00;61.70
72883;DHT22;61017;37.812;-122.286;2023-02-17T01:01:07;14.00;60.80
72883;DHT22;61017;37.812;-122.286;2023-02-17T01:02:38;13.90;60.80
72883;DHT22;61017;37.812;-122.286;2023-02-17T01:04:09;14.00;60.90
72883;DHT22;61017;37.812;-122.286;2023-02-17T01:05:41;13.90;60.70
72883;DHT22;61017;37.812;-122.286;2023-02-17T01:07:12;14.00;60.80
72883;DHT22;61017;37.812;-122.286;2023-02-17T01:08:43;13.90;60.70
72883;DHT22;61017;37.812;-122.286;2023-02-17T01:10:14;14.00;60.60
72883;DHT22;61017;37.812;-122.286;2023-02-17T01:11:45;13.90;60.60
72883;DHT22;61017;37.812;-122.286;2023-02-17T01:13:16;13.90;60.60
72883;DHT22;61017;37.812;-122.286;2023-02-17T01:14:47;13.90;60.50
72883;DHT22;61017;37.812;-122.286;2023-02-17T01:16:28;13.90;60.50
72883;DHT22;61017;37.812;-122.286;2023-02-17T01:18:00;13.90;60.50
72883;DHT22;61017;37.812;-122.286;2023-02-17T01:19:31;13.90;60.60
72883;DHT22;61017;37.812;-122.286;2023-02-17T01:21:02;13.90;60.50
72883;DHT22;61017;37.812;-122.286;2023-02-17T01:22:33;13.90;60.30
72883;DHT22;61017;37.812;-122.286;2023-02-17T01:24:05;13.90;60.30
72883;DHT22;61017;37.812;-122.286;2023-02-17T01:25:37;13.90;60.20
72883;DHT22;61017;37.812;-122.286;2023-02-17T01:27:08;13.90;60.10
72883;DHT22;61017;37.812;-122.286;2023-02-17T01:28:39;13.90;59.80
72883;DHT22;61017;37.812;-122.286;2023-02-17T01:30:11;13.90;59.90
72883;DHT22;61017;37.812;-122.286;2023-02-17T01:31:42;13.90;60.20
72883;DHT22;61017;37.812;-122.286;2023-02-17T01:33:13;13.90;60.10
72883;DHT22;61017;37.812;-122.286;2023-02-17T01:34:44;13.90;60.10
72883;DHT22;61017;37.812;-122.286;2023-02-17T01:36:16;13.90;60.20
72883;DHT22;61017;37.812;-122.286;2023-02-17T01:37:47;13.90;60.20
72883;DHT22;61017;37.812;-122.286;2023-02-17T01:39:19;13.90;60.30
72883;DHT22;61017;37.812;-122.286;2023-02-17T01:40:50;13.90;60.10
72883;DHT22;61017;37.812;-122.286;2023-02-17T01:42:21;13.90;59.90
72883;DHT22;61017;37.812;-122.286;2023-02-17T01:44:06;13.90;59.80
72883;DHT22;61017;37.812;-122.286;2023-02-17T01:45:39;13.90;59.90
72883;DHT22;61017;37.812;-122.286;2023-02-17T01:47:11;13.90;60.00
72883;DHT22;61017;37.812;-122.286;2023-02-17T01:48:44;13.90;60.20
72883;DHT22;61017;37.812;-122.286;2023-02-17T01:50:16;13.90;59.90
72883;DHT22;61017;37.812;-122.286;2023-02-17T01:51:51;13.90;59.70
72883;DHT22;61017;37.812;-122.286;2023-02-17T01:53:27;13.90;59.80
72883;DHT22;61017;37.812;-122.286;2023-02-17T01:55:01;13.90;59.80
72883;DHT22;61017;37.812;-122.286;2023-02-17T01:56:33;13.90;59.60
72883;DHT22;61017;37.812;-122.286;2023-02-17T01:58:07;13.90;59.50
72883;DHT22;61017;37.812;-122.286;2023-02-17T01:59:38;13.90;59.60
72883;DHT22;61017;37.812;-122.286;2023-02-17T02:01:10;13.90;59.60
72883;DHT22;61017;37.812;-122.286;2023-02-17T02:02:43;13.90;59.60
72883;DHT22;61017;37.812;-122.286;2023-02-17T02:04:14;13.90;59.60
72883;DHT22;61017;37.812;-122.286;2023-02-17T02:05:46;13.90;59.70
72883;DHT22;61017;37.812;-122.286;2023-02-17T02:07:39;13.90;59.70
72883;DHT22;61017;37.812;-122.286;2023-02-17T02:10:46;13.90;59.60
72883;DHT22;61017;37.812;-122.286;2023-02-17T02:12:21;13.90;59.60
72883;DHT22;61017;37.812;-122.286;2023-02-17T02:13:53;13.90;59.60
72883;DHT22;61017;37.812;-122.286;2023-02-17T02:15:25;13.90;59.70
72883;DHT22;61017;37.812;-122.286;2023-02-17T02:28:41;13.90;60.70
72883;DHT22;61017;37.812;-122.286;2023-02-17T02:34:01;13.90;60.00
72883;DHT22;61017;37.812;-122.286;2023-02-17T02:35:45;13.90;60.30
72883;DHT22;61017;37.812;-122.286;2023-02-17T02:37:23;13.90;60.40
72883;DHT22;61017;37.812;-122.286;2023-02-17T02:39:09;13.90;60.60
72883;DHT22;61017;37.812;-122.286;2023-02-17T02:40:49;13.90;60.60
72883;DHT22;61017;37.812;-122.286;2023-02-17T02:42:22;13.90;60.70
72883;DHT22;61017;37.812;-122.286;2023-02-17T02:43:54;13.90;60.70
72883;DHT22;61017;37.812;-122.286;2023-02-17T02:45:25;13.90;60.70
72883;DHT22;61017;37.812;-122.286;2023-02-17T02:47:00;13.90;60.80
72883;DHT22;61017;37.812;-122.286;2023-02-17T02:48:32;13.90;60.80
72883;DHT22;61017;37.812;-122.286;2023-02-17T02:50:03;13.90;60.90
72883;DHT22;61017;37.812;-122.286;2023-02-17T02:53:29;14.00;61.00
72883;DHT22;61017;37.812;-122.286;2023-02-17T03:01:30;13.90;61.30
72883;DHT22;61017;37.812;-122.286;2023-02-17T03:03:07;13.90;61.30
72883;DHT22;61017;37.812;-122.286;2023-02-17T03:06:27;13.90;62.10
72883;DHT22;61017;37.812;-122.286;2023-02-17T03:08:43;13.90;61.40
72883;DHT22;61017;37.812;-122.286;2023-02-17T03:09:54;13.90;61.30
72883;DHT22;61017;37.812;-122.286;2023-02-17T03:11:26;13.90;61.40
72883;DHT22;61017;37.812;-122.286;2023-02-17T03:12:57;13.90;61.50
72883;DHT22;61017;37.812;-122.286;2023-02-17T03:14:28;13.90;61.50
72883;DHT22;61017;37.812;-122.286;2023-02-17T03:16:05;13.90;61.50
72883;DHT22;61017;37.812;-122.286;2023-02-17T03:17:36;13.90;61.50
72883;DHT22;61017;37.812;-122.286;2023-02-17T03:19:08;13.90;61.50
72883;DHT22;61017;37.812;-122.286;2023-02-17T03:20:45;13.90;61.30
72883;DHT22;61017;37.812;-122.286;2023-02-17T03:22:40;13.90;61.30
72883;DHT22;61017;37.812;-122.286;2023-02-17T03:24:13;13.90;61.50
72883;DHT22;61017;37.812;-122.286;2023-02-17T03:25:44;13.90;61.50
72883;DHT22;61017;37.812;-122.286;2023-02-17T03:27:15;13.90;61.50
72883;DHT22;61017;37.812;-122.286;2023-02-17T03:28:46;13.90;61.50
72883;DHT22;61017;37.812;-122.286;2023-02-17T03:30:17;13.90;61.60
72883;DHT22;61017;37.812;-122.286;2023-02-17T03:31:48;13.90;61.60
72883;DHT22;61017;37.812;-122.286;2023-02-17T03:33:19;13.90;61.60
72883;DHT22;61017;37.812;-122.286;2023-02-17T03:34:50;13.90;61.70
72883;DHT22;61017;37.812;-122.286;2023-02-17T03:36:21;13.90;61.70
72883;DHT22;61017;37.812;-122.286;2023-02-17T03:37:52;13.90;61.70
72883;DHT22;61017;37.812;-122.286;2023-02-17T03:39:23;13.90;61.70
72883;DHT22;61017;37.812;-122.286;2023-02-17T03:40:55;13.90;61.80
72883;DHT22;61017;37.812;-122.286;2023-02-17T03:42:26;13.90;61.80
72883;DHT22;61017;37.812;-122.286;2023-02-17T03:43:57;13.90;61.90
72883;DHT22;61017;37.812;-122.286;2023-02-17T03:45:28;13.90;62.00
72883;DHT22;61017;37.812;-122.286;2023-02-17T03:46:59;13.90;62.00
72883;DHT22;61017;37.812;-122.286;2023-02-17T03:48:30;13.90;62.00
72883;DHT22;61017;37.812;-122.286;2023-02-17T03:50:02;13.90;62.00
72883;DHT22;61017;37.812;-122.286;2023-02-17T03:51:33;13.90;62.10
72883;DHT22;61017;37.812;-122.286;2023-02-17T03:53:04;13.90;62.10
72883;DHT22;61017;37.812;-122.286;2023-02-17T03:54:36;13.90;62.20
72883;DHT22;61017;37.812;-122.286;2023-02-17T03:56:08;13.90;62.20
72883;DHT22;61017;37.812;-122.286;2023-02-17T03:57:39;13.90;62.20
72883;DHT22;61017;37.812;-122.286;2023-02-17T03:59:10;13.90;62.20
72883;DHT22;61017;37.812;-122.286;2023-02-17T04:00:41;13.90;62.20
72883;DHT22;61017;37.812;-122.286;2023-02-17T04:02:12;13.90;62.20
72883;DHT22;61017;37.812;-122.286;2023-02-17T04:03:43;13.90;62.20
72883;DHT22;61017;37.812;-122.286;2023-02-17T04:05:14;13.90;62.20
72883;DHT22;61017;37.812;-122.286;2023-02-17T04:06:45;13.90;62.20
72883;DHT22;61017;37.812;-122.286;2023-02-17T04:08:17;13.90;62.20
72883;DHT22;61017;37.812;-122.286;2023-02-17T04:09:48;13.90;62.30
72883;DHT22;61017;37.812;-122.286;2023-02-17T04:11:19;13.90;62.30
72883;DHT22;61017;37.812;-122.286;2023-02-17T04:12:50;13.90;62.30
72883;DHT22;61017;37.812;-122.286;2023-02-17T04:14:21;14.00;62.50
72883;DHT22;61017;37.812;-122.286;2023-02-17T04:15:52;13.90;62.50
72883;DHT22;61017;37.812;-122.286;2023-02-17T04:17:23;13.90;62.50
72883;DHT22;61017;37.812;-122.286;2023-02-17T04:18:55;13.90;62.50
72883;DHT22;61017;37.812;-122.286;2023-02-17T04:20:26;13.90;62.60
72883;DHT22;61017;37.812;-122.286;2023-02-17T04:21:57;14.00;62.60
72883;DHT22;61017;37.812;-122.286;2023-02-17T04:23:28;13.90;62.60
72883;DHT22;61017;37.812;-122.286;2023-02-17T04:24:59;13.90;62.70
72883;DHT22;61017;37.812;-122.286;2023-02-17T04:26:30;13.90;62.70
72883;DHT22;61017;37.812;-122.286;2023-02-17T04:28:02;13.90;62.70
72883;DHT22;61017;37.812;-122.286;2023-02-17T04:29:33;14.00;62.80
72883;DHT22;61017;37.812;-122.286;2023-02-17T04:31:04;14.00;62.80
72883;DHT22;61017;37.812;-122.286;2023-02-17T04:32:35;13.90;62.70
72883;DHT22;61017;37.812;-122.286;2023-02-17T04:34:07;13.90;62.60
72883;DHT22;61017;37.812;-122.286;2023-02-17T04:35:38;13.90;62.60
72883;DHT22;61017;37.812;-122.286;2023-02-17T04:37:09;13.90;62.70
72883;DHT22;61017;37.812;-122.286;2023-02-17T04:38:40;13.90;62.60
72883;DHT22;61017;37.812;-122.286;2023-02-17T04:40:11;13.90;62.60
72883;DHT22;61017;37.812;-122.286;2023-02-17T04:41:42;13.90;62.80
72883;DHT22;61017;37.812;-122.286;2023-02-17T04:43:14;13.90;62.90
72883;DHT22;61017;37.812;-122.286;2023-02-17T04:44:45;13.90;62.90
72883;DHT22;61017;37.812;-122.286;2023-02-17T04:46:16;14.00;63.00
72883;DHT22;61017;37.812;-122.286;2023-02-17T04:47:47;13.90;62.80
72883;DHT22;61017;37.812;-122.286;2023-02-17T04:49:18;13.90;62.80
72883;DHT22;61017;37.812;-122.286;2023-02-17T04:50:49;13.90;62.80
72883;DHT22;61017;37.812;-122.286;2023-02-17T04:52:20;13.90;62.80
72883;DHT22;61017;37.812;-122.286;2023-02-17T04:53:51;13.90;62.80
72883;DHT22;61017;37.812;-122.286;2023-02-17T04:55:22;13.90;62.80
72883;DHT22;61017;37.812;-122.286;2023-02-17T04:56:53;13.90;62.90
72883;DHT22;61017;37.812;-122.286;2023-02-17T04:58:24;13.90;62.90
72883;DHT22;61017;37.812;-122.286;2023-02-17T04:59:55;13.90;62.80
72883;DHT22;61017;37.812;-122.286;2023-02-17T05:01:26;13.90;62.80
72883;DHT22;61017;37.812;-122.286;2023-02-17T05:02:58;13.90;62.80
72883;DHT22;61017;37.812;-122.286;2023-02-17T05:04:29;13.90;62.80
72883;DHT22;61017;37.812;-122.286;2023-02-17T05:06:00;13.90;62.90
72883;DHT22;61017;37.812;-122.286;2023-02-17T05:07:31;13.90;62.90
72883;DHT22;61017;37.812;-122.286;2023-02-17T05:09:02;13.90;62.90
72883;DHT22;61017;37.812;-122.286;2023-02-17T05:10:33;13.90;62.90
72883;DHT22;61017;37.812;-122.286;2023-02-17T05:12:04;13.90;62.90
72883;DHT22;61017;37.812;-122.286;2023-02-17T05:13:36;13.90;62.90
72883;DHT22;61017;37.812;-122.286;2023-02-17T05:15:07;13.90;62.90
72883;DHT22;61017;37.812;-122.286;2023-02-17T05:16:38;13.90;62.90
72883;DHT22;61017;37.812;-122.286;2023-02-17T05:18:09;13.90;62.90
72883;DHT22;61017;37.812;-122.286;2023-02-17T05:19:40;13.90;62.90
72883;DHT22;61017;37.812;-122.286;2023-02-17T05:21:11;13.90;63.00
72883;DHT22;61017;37.812;-122.286;2023-02-17T05:22:42;13.90;63.00
72883;DHT22;61017;37.812;-122.286;2023-02-17T05:24:13;13.90;63.90
72883;DHT22;61017;37.812;-122.286;2023-02-17T05:25:44;13.90;63.00
72883;DHT22;61017;37.812;-122.286;2023-02-17T05:27:15;13.90;63.00
72883;DHT22;61017;37.812;-122.286;2023-02-17T05:28:46;14.00;63.10
72883;DHT22;61017;37.812;-122.286;2023-02-17T05:30:18;13.90;63.00
72883;DHT22;61017;37.812;-122.286;2023-02-17T05:31:49;13.90;63.00
72883;DHT22;61017;37.812;-122.286;2023-02-17T05:33:20;13.90;63.00
72883;DHT22;61017;37.812;-122.286;2023-02-17T05:34:51;13.90;63.10
72883;DHT22;61017;37.812;-122.286;2023-02-17T05:36:22;14.00;63.30
72883;DHT22;61017;37.812;-122.286;2023-02-17T05:37:53;13.90;63.20
72883;DHT22;61017;37.812;-122.286;2023-02-17T05:39:24;13.90;63.20
72883;DHT22;61017;37.812;-122.286;2023-02-17T05:40:55;14.00;63.30
72883;DHT22;61017;37.812;-122.286;2023-02-17T05:42:26;14.00;63.30
72883;DHT22;61017;37.812;-122.286;2023-02-17T05:43:57;14.00;63.30
72883;DHT22;61017;37.812;-122.286;2023-02-17T05:45:28;14.00;63.30
72883;DHT22;61017;37.812;-122.286;2023-02-17T05:46:59;13.90;63.30
72883;DHT22;61017;37.812;-122.286;2023-02-17T05:48:30;13.90;63.20
72883;DHT22;61017;37.812;-122.286;2023-02-17T05:50:02;13.90;63.20
72883;DHT22;61017;37.812;-122.286;2023-02-17T05:51:34;13.90;63.10
72883;DHT22;61017;37.812;-122.286;2023-02-17T05:53:05;14.00;63.30
72883;DHT22;61017;37.812;-122.286;2023-02-17T05:54:36;13.90;63.20
72883;DHT22;61017;37.812;-122.286;2023-02-17T05:56:07;13.90;63.30
72883;DHT22;61017;37.812;-122.286;2023-02-17T05:57:38;13.90;63.20
72883;DHT22;61017;37.812;-122.286;2023-02-17T05:59:09;13.90;63.20
72883;DHT22;61017;37.812;-122.286;2023-02-17T06:00:40;13.90;63.20
72883;DHT22;61017;37.812;-122.286;2023-02-17T06:02:11;13.90;63.20
72883;DHT22;61017;37.812;-122.286;2023-02-17T06:03:42;14.00;63.30
72883;DHT22;61017;37.812;-122.286;2023-02-17T06:05:14;13.90;63.20
72883;DHT22;61017;37.812;-122.286;2023-02-17T06:06:45;13.90;63.20
72883;DHT22;61017;37.812;-122.286;2023-02-17T06:08:16;14.00;63.30
72883;DHT22;61017;37.812;-122.286;2023-02-17T06:09:47;13.90;63.20
72883;DHT22;61017;37.812;-122.286;2023-02-17T06:11:18;13.90;63.20
72883;DHT22;61017;37.812;-122.286;2023-02-17T06:12:49;13.90;63.20
72883;DHT22;61017;37.812;-122.286;2023-02-17T06:14:20;13.90;63.20
72883;DHT22;61017;37.812;-122.286;2023-02-17T06:15:51;14.00;63.30
72883;DHT22;61017;37.812;-122.286;2023-02-17T06:17:22;13.90;63.20
72883;DHT22;61017;37.812;-122.286;2023-02-17T06:18:53;13.90;63.20
72883;DHT22;61017;37.812;-122.286;2023-02-17T06:20:24;13.90;64.00
72883;DHT22;61017;37.812;-122.286;2023-02-17T06:21:55;13.90;63.20
72883;DHT22;61017;37.812;-122.286;2023-02-17T06:23:26;13.90;63.30
72883;DHT22;61017;37.812;-122.286;2023-02-17T06:24:57;13.90;63.30
72883;DHT22;61017;37.812;-122.286;2023-02-17T06:26:29;13.90;63.30
72883;DHT22;61017;37.812;-122.286;2023-02-17T06:28:00;13.90;63.30
72883;DHT22;61017;37.812;-122.286;2023-02-17T06:29:31;13.90;63.30
72883;DHT22;61017;37.812;-122.286;2023-02-17T06:31:02;13.90;63.30
72883;DHT22;61017;37.812;-122.286;2023-02-17T06:32:33;13.90;63.40
72883;DHT22;61017;37.812;-122.286;2023-02-17T06:34:05;13.90;63.30
72883;DHT22;61017;37.812;-122.286;2023-02-17T06:35:36;14.00;63.50
72883;DHT22;61017;37.812;-122.286;2023-02-17T06:37:07;14.00;63.50
72883;DHT22;61017;37.812;-122.286;2023-02-17T06:38:38;13.90;63.40
72883;DHT22;61017;37.812;-122.286;2023-02-17T06:40:09;13.90;63.30
72883;DHT22;61017;37.812;-122.286;2023-02-17T06:41:41;13.90;63.40
72883;DHT22;61017;37.812;-122.286;2023-02-17T06:43:12;13.90;63.40
72883;DHT22;61017;37.812;-122.286;2023-02-17T06:44:43;13.90;63.40
72883;DHT22;61017;37.812;-122.286;2023-02-17T06:46:14;13.90;63.40
72883;DHT22;61017;37.812;-122.286;2023-02-17T06:47:45;13.90;63.40
72883;DHT22;61017;37.812;-122.286;2023-02-17T06:49:16;13.90;63.50
72883;DHT22;61017;37.812;-122.286;2023-02-17T06:50:50;13.90;63.50
72883;DHT22;61017;37.812;-122.286;2023-02-17T06:52:21;13.90;63.50
72883;DHT22;61017;37.812;-122.286;2023-02-17T06:53:52;13.90;63.50
72883;DHT22;61017;37.812;-122.286;2023-02-17T06:55:23;13.90;63.50
72883;DHT22;61017;37.812;-122.286;2023-02-17T06:56:54;13.90;63.60
72883;DHT22;61017;37.812;-122.286;2023-02-17T06:58:25;13.90;63.60
72883;DHT22;61017;37.812;-122.286;2023-02-17T06:59:56;13.90;63.50
72883;DHT22;61017;37.812;-122.286;2023-02-17T07:01:27;13.90;63.60
72883;DHT22;61017;37.812;-122.286;2023-02-17T07:02:58;13.90;63.50
72883;DHT22;61017;37.812;-122.286;2023-02-17T07:04:29;13.90;63.50
72883;DHT22;61017;37.812;-122.286;2023-02-17T07:06:00;13.90;63.60
72883;DHT22;61017;37.812;-122.286;2023-02-17T07:07:31;13.90;63.60
72883;DHT22;61017;37.812;-122.286;2023-02-17T07:09:03;13.90;63.60
72883;DHT22;61017;37.812;-122.286;2023-02-17T07:10:35;13.90;63.60
72883;DHT22;61017;37.812;-122.286;2023-02-17T07:12:06;13.90;63.60
72883;DHT22;61017;37.812;-122.286;2023-02-17T07:13:37;13.90;63.70
72883;DHT22;61017;37.812;-122.286;2023-02-17T07:15:09;13.90;63.70
72883;DHT22;61017;37.812;-122.286;2023-02-17T07:16:40;13.90;63.60
72883;DHT22;61017;37.812;-122.286;2023-02-17T07:18:11;13.90;63.60
72883;DHT22;61017;37.812;-122.286;2023-02-17T07:19:42;13.90;63.60
72883;DHT22;61017;37.812;-122.286;2023-02-17T07:21:13;13.90;63.60
72883;DHT22;61017;37.812;-122.286;2023-02-17T07:22:44;13.90;63.60
72883;DHT22;61017;37.812;-122.286;2023-02-17T07:24:15;13.90;63.60
72883;DHT22;61017;37.812;-122.286;2023-02-17T07:25:46;13.90;63.60
72883;DHT22;61017;37.812;-122.286;2023-02-17T07:27:17;13.90;63.70
72883;DHT22;61017;37.812;-122.286;2023-02-17T07:28:48;13.90;63.70
72883;DHT22;61017;37.812;-122.286;2023-02-17T07:30:19;13.90;63.70
72883;DHT22;61017;37.812;-122.286;2023-02-17T07:31:50;13.90;63.70
72883;DHT22;61017;37.812;-122.286;2023-02-17T07:33:21;13.90;63.70
72883;DHT22;61017;37.812;-122.286;2023-02-17T07:34:53;13.90;63.70
72883;DHT22;61017;37.812;-122.286;2023-02-17T07:36:24;13.90;63.70
72883;DHT22;61017;37.812;-122.286;2023-02-17T07:37:58;13.90;63.60
72883;DHT22;61017;37.812;-122.286;2023-02-17T07:39:29;13.90;63.80
72883;DHT22;61017;37.812;-122.286;2023-02-17T07:41:07;13.90;63.80
72883;DHT22;61017;37.812;-122.286;2023-02-17T07:42:38;13.90;63.70
72883;DHT22;61017;37.812;-122.286;2023-02-17T07:44:09;13.90;63.80
72883;DHT22;61017;37.812;-122.286;2023-02-17T07:45:40;13.90;63.80
72883;DHT22;61017;37.812;-122.286;2023-02-17T07:47:11;13.90;63.80
72883;DHT22;61017;37.812;-122.286;2023-02-17T07:48:42;13.90;63.80
72883;DHT22;61017;37.812;-122.286;2023-02-17T07:50:13;13.90;63.80
72883;DHT22;61017;37.812;-122.286;2023-02-17T07:51:44;13.90;63.80
72883;DHT22;61017;37.812;-122.286;2023-02-17T07:53:15;13.90;63.80
72883;DHT22;61017;37.812;-122.286;2023-02-17T07:54:46;13.90;63.80
72883;DHT22;61017;37.812;-122.286;2023-02-17T07:56:18;13.90;63.80
72883;DHT22;61017;37.812;-122.286;2023-02-17T07:57:49;13.90;63.90
72883;DHT22;61017;37.812;-122.286;2023-02-17T07:59:20;13.90;63.90
72883;DHT22;61017;37.812;-122.286;2023-02-17T08:00:51;13.90;63.90
72883;DHT22;61017;37.812;-122.286;2023-02-17T08:02:22;13.90;63.90
72883;DHT22;61017;37.812;-122.286;2023-02-17T08:03:54;13.90;63.80
72883;DHT22;61017;37.812;-122.286;2023-02-17T08:05:25;13.90;63.80
72883;DHT22;61017;37.812;-122.286;2023-02-17T08:06:56;13.90;63.80
72883;DHT22;61017;37.812;-122.286;2023-02-17T08:08:27;13.90;63.80
72883;DHT22;61017;37.812;-122.286;2023-02-17T08:09:58;13.90;63.90
72883;DHT22;61017;37.812;-122.286;2023-02-17T08:11:29;13.90;63.90
72883;DHT22;61017;37.812;-122.286;2023-02-17T08:13:01;13.90;63.90
72883;DHT22;61017;37.812;-122.286;2023-02-17T08:14:32;13.90;63.80
72883;DHT22;61017;37.812;-122.286;2023-02-17T08:16:03;13.90;63.80
72883;DHT22;61017;37.812;-122.286;2023-02-17T08:17:34;13.90;63.70
72883;DHT22;61017;37.812;-122.286;2023-02-17T08:19:05;13.90;63.60
72883;DHT22;61017;37.812;-122.286;2023-02-17T08:20:36;13.90;63.60
72883;DHT22;61017;37.812;-122.286;2023-02-17T08:22:07;13.90;63.70
72883;DHT22;61017;37.812;-122.286;2023-02-17T08:23:39;13.90;63.70
72883;DHT22;61017;37.812;-122.286;2023-02-17T08:25:10;13.90;63.60
72883;DHT22;61017;37.812;-122.286;2023-02-17T08:26:41;13.90;63.60
72883;DHT22;61017;37.812;-122.286;2023-02-17T08:28:12;13.90;63.50
72883;DHT22;61017;37.812;-122.286;2023-02-17T08:29:43;13.90;63.50
72883;DHT22;61017;37.812;-122.286;2023-02-17T08:31:15;13.90;63.40
72883;DHT22;61017;37.812;-122.286;2023-02-17T08:32:46;13.90;63.40
72883;DHT22;61017;37.812;-122.286;2023-02-17T08:34:17;14.00;63.40
72883;DHT22;61017;37.812;-122.286;2023-02-17T08:35:49;13.90;63.30
72883;DHT22;61017;37.812;-122.286;2023-02-17T08:37:20;14.00;63.30
72883;DHT22;61017;37.812;-122.286;2023-02-17T08:38:51;13.90;63.20
72883;DHT22;61017;37.812;-122.286;2023-02-17T08:40:23;13.90;63.20
72883;DHT22;61017;37.812;-122.286;2023-02-17T08:41:55;13.90;63.10
72883;DHT22;61017;37.812;-122.286;2023-02-17T08:43:26;13.90;63.10
72883;DHT22;61017;37.812;-122.286;2023-02-17T08:44:57;13.90;63.00
72883;DHT22;61017;37.812;-122.286;2023-02-17T08:46:28;13.90;62.90
72883;DHT22;61017;37.812;-122.286;2023-02-17T08:48:00;13.90;62.80
72883;DHT22;61017;37.812;-122.286;2023-02-17T08:49:31;13.90;62.90
72883;DHT22;61017;37.812;-122.286;2023-02-17T08:51:03;13.90;62.90
72883;DHT22;61017;37.812;-122.286;2023-02-17T08:52:34;13.90;62.80
72883;DHT22;61017;37.812;-122.286;2023-02-17T08:54:06;13.90;62.80
72883;DHT22;61017;37.812;-122.286;2023-02-17T08:55:37;13.90;63.50
72883;DHT22;61017;37.812;-122.286;2023-02-17T08:57:08;13.90;62.70
72883;DHT22;61017;37.812;-122.286;2023-02-17T08:58:39;13.90;62.70
72883;DHT22;61017;37.812;-122.286;2023-02-17T09:00:10;13.90;62.90
72883;DHT22;61017;37.812;-122.286;2023-02-17T09:01:41;13.90;62.90
72883;DHT22;61017;37.812;-122.286;2023-02-17T09:03:13;13.90;62.90
72883;DHT22;61017;37.812;-122.286;2023-02-17T09:04:44;13.90;62.90
72883;DHT22;61017;37.812;-122.286;2023-02-17T09:06:15;13.90;62.90
72883;DHT22;61017;37.812;-122.286;2023-02-17T09:07:46;13.90;63.00
72883;DHT22;61017;37.812;-122.286;2023-02-17T09:09:19;13.90;62.90
72883;DHT22;61017;37.812;-122.286;2023-02-17T09:10:50;13.90;63.00
72883;DHT22;61017;37.812;-122.286;2023-02-17T09:12:21;13.90;62.90
72883;DHT22;61017;37.812;-122.286;2023-02-17T09:13:53;13.90;62.90
72883;DHT22;61017;37.812;-122.286;2023-02-17T09:15:24;13.90;62.90
72883;DHT22;61017;37.812;-122.286;2023-02-17T09:16:55;13.90;62.90
72883;DHT22;61017;37.812;-122.286;2023-02-17T09:18:27;13.90;63.00
72883;DHT22;61017;37.812;-122.286;2023-02-17T09:19:58;13.90;63.00
72883;DHT22;61017;37.812;-122.286;2023-02-17T09:21:29;13.90;63.00
72883;DHT22;61017;37.812;-122.286;2023-02-17T09:23:00;13.90;63.00
72883;DHT22;61017;37.812;-122.286;2023-02-17T09:24:31;13.90;63.00
72883;DHT22;61017;37.812;-122.286;2023-02-17T09:26:03;13.90;62.90
72883;DHT22;61017;37.812;-122.286;2023-02-17T09:27:35;13.90;62.90
72883;DHT22;61017;37.812;-122.286;2023-02-17T09:29:06;13.90;62.90
72883;DHT22;61017;37.812;-122.286;2023-02-17T09:30:37;13.90;62.80
72883;DHT22;61017;37.812;-122.286;2023-02-17T09:32:08;13.90;62.80
72883;DHT22;61017;37.812;-122.286;2023-02-17T09:33:39;13.90;62.90
72883;DHT22;61017;37.812;-122.286;2023-02-17T09:35:14;13.90;62.90
72883;DHT22;61017;37.812;-122.286;2023-02-17T09:36:45;13.90;62.90
72883;DHT22;61017;37.812;-122.286;2023-02-17T09:38:16;13.90;62.90
72883;DHT22;61017;37.812;-122.286;2023-02-17T09:39:47;13.90;62.90